.
WxDataArchive / Data Records for 2007-08-14
2007-08-13 August 2007 2007-08-15

Data Records for Tuesday, 14 August 2007

Time	Temp	Chill	HIndex	Humid	Dewpt	 Wind 	HiWind	WindDir	Rain 	Barom 
-----	----	-----	------	-----	-----	------	------	-------	-----	----- 
00:00	60.1	60.1	60.1	88	56.5	0	0	---	0.00	29.999 
00:05	60.1	60.1	60.1	88	56.5	0	0	---	0.00	30.005 
00:10	60.1	60.1	60.1	88	56.5	0	0	---	0.00	30.003 
00:15	60.1	60.1	60.1	88	56.5	0	0	---	0.00	30.000 
00:20	59.9	59.9	59.9	88	56.3	0	0	---	0.00	30.004 
00:25	59.9	59.9	59.9	88	56.3	0	0	---	0.00	30.001 
00:30	59.9	59.9	59.9	89	56.6	0	0	---	0.00	30.003 
00:35	59.8	59.8	59.8	89	56.5	0	0	---	0.00	30.001 
00:40	59.8	59.8	59.8	89	56.5	0	0	---	0.00	29.996 
00:45	59.6	59.6	59.6	89	56.4	0	0	---	0.00	29.994 
00:50	59.6	59.6	59.6	89	56.4	0	0	---	0.00	29.995 
00:55	59.5	59.5	59.5	89	56.3	0	0	---	0.00	29.995 
01:00	59.3	59.3	59.3	90	56.4	0	0	---	0.00	29.993 
01:05	59.3	59.3	59.3	90	56.4	0	0	---	0.00	29.990 
01:10	59.2	59.2	59.2	90	56.3	0	0	---	0.00	29.986 
01:15	59.0	59.0	59.0	90	56.1	0	0	---	0.00	29.986 
01:20	58.9	58.9	58.9	90	56.0	0	0	---	0.00	29.980 
01:25	58.9	58.9	58.9	90	56.0	0	0	---	0.00	29.980 
01:30	58.7	58.7	58.7	91	56.1	0	0	---	0.00	29.982 
01:35	58.7	58.7	58.7	91	56.1	0	0	---	0.00	29.980 
01:40	58.7	58.7	58.7	91	56.1	0	0	---	0.00	29.979 
01:45	58.6	58.6	58.6	92	56.3	0	0	---	0.00	29.980 
01:50	58.6	58.6	58.6	92	56.3	0	0	---	0.00	29.979 
01:55	58.6	58.6	58.6	92	56.3	0	0	---	0.00	29.978 
02:00	58.6	58.6	58.6	92	56.3	0	0	---	0.00	29.978 
02:05	58.6	58.6	58.6	92	56.3	0	0	---	0.00	29.974 
02:10	58.6	58.6	58.6	92	56.3	0	0	---	0.00	29.975 
02:15	58.6	58.6	58.6	92	56.3	0	0	---	0.00	29.973 
02:20	58.6	58.6	58.6	93	56.6	0	0	---	0.00	29.975 
02:25	58.6	58.6	58.6	93	56.6	0	0	---	0.00	29.971 
02:30	58.4	58.4	58.4	93	56.4	0	0	---	0.00	29.965 
02:35	58.4	58.4	58.4	93	56.4	0	0	---	0.00	29.962 
02:40	58.4	58.4	58.4	93	56.4	0	0	---	0.00	29.962 
02:45	58.4	58.4	58.4	93	56.4	0	0	---	0.00	29.967 
02:50	58.4	58.4	58.4	94	56.7	0	0	---	0.00	29.964 
02:55	58.4	58.4	58.4	94	56.7	0	0	---	0.00	29.961 
03:00	58.4	58.4	58.4	94	56.7	0	0	---	0.00	29.961 
03:05	58.4	58.4	58.4	94	56.7	0	0	---	0.00	29.962 
03:10	58.3	58.3	58.3	94	56.6	0	0	---	0.00	29.963 
03:15	58.3	58.3	58.3	94	56.6	0	0	---	0.00	29.966 
03:20	58.3	58.3	58.3	94	56.6	0	0	---	0.00	29.966 
03:25	58.3	58.3	58.3	94	56.6	0	0	---	0.00	29.972 
03:30	58.1	58.1	58.1	95	56.7	0	0	---	0.00	29.975 
03:35	58.1	58.1	58.1	94	56.4	0	0	---	0.00	29.975 
03:40	58.0	58.0	58.0	95	56.6	0	0	---	0.00	29.976 
03:45	58.0	58.0	58.0	95	56.6	0	0	---	0.00	29.974 
03:50	58.0	58.0	58.0	95	56.6	0	0	---	0.00	29.976 
03:55	57.8	57.8	57.8	95	56.4	0	0	---	0.00	29.971 
04:00	57.8	57.8	57.8	95	56.4	0	0	---	0.00	29.971 
04:05	57.6	57.6	57.6	95	56.2	0	0	---	0.00	29.966 
04:10	57.6	57.6	57.6	95	56.2	0	0	---	0.00	29.965 
04:15	57.6	57.6	57.6	95	56.2	0	0	---	0.00	29.964 
04:20	57.6	57.6	57.6	95	56.2	0	0	---	0.00	29.964 
04:25	57.6	57.6	57.6	95	56.2	0	0	---	0.00	29.963 
04:30	57.6	57.6	57.6	95	56.2	0	0	---	0.00	29.965 
04:35	57.6	57.6	57.6	95	56.2	0	0	---	0.00	29.967 
04:40	57.6	57.6	57.6	96	56.5	0	0	---	0.00	29.969 
04:45	57.6	57.6	57.6	96	56.5	0	0	---	0.00	29.973 
04:50	57.6	57.6	57.6	96	56.5	0	0	---	0.00	29.976 
04:55	57.6	57.6	57.6	96	56.5	0	0	---	0.00	29.976 
05:00	57.6	57.6	57.6	96	56.5	0	0	---	0.00	29.978 
05:05	57.6	57.6	57.6	96	56.5	0	0	---	0.00	29.979 
05:10	57.6	57.6	57.6	96	56.5	0	0	---	0.00	29.980 
05:15	57.6	57.6	57.6	96	56.5	0	0	---	0.00	29.980 
05:20	57.6	57.6	57.6	96	56.5	0	0	---	0.00	29.981 
05:25	57.6	57.6	57.6	96	56.5	0	0	---	0.00	29.985 
05:30	57.8	57.8	57.8	96	56.7	0	0	---	0.00	29.986 
05:35	57.8	57.8	57.8	96	56.7	0	0	---	0.00	29.988 
05:40	57.8	57.8	57.8	96	56.7	0	0	---	0.00	29.985 
05:45	58.0	58.0	58.0	96	56.9	0	0	---	0.00	29.983 
05:50	58.0	58.0	58.0	96	56.9	0	0	---	0.00	29.982 
05:55	58.0	58.0	58.0	96	56.9	0	0	---	0.00	29.980 
06:00	58.0	58.0	58.0	96	56.9	0	0	---	0.00	29.978 
06:05	58.0	58.0	58.0	96	56.9	0	0	---	0.00	29.981 
06:10	58.0	58.0	58.0	96	56.9	0	0	---	0.00	29.983 
06:15	58.1	58.1	58.1	96	57.0	0	0	---	0.00	29.988 
06:20	58.1	58.1	58.1	96	57.0	0	0	---	0.00	29.996 
06:25	58.3	58.3	58.3	96	57.2	0	0	---	0.00	29.996 
06:30	58.4	58.4	58.4	96	57.3	0	0	---	0.00	29.997 
06:35	58.6	58.6	58.6	97	57.7	0	0	---	0.00	29.999 
06:40	58.6	58.6	58.6	97	57.7	0	0	---	0.00	30.000 
06:45	58.7	58.7	58.7	97	57.8	0	0	---	0.00	30.004 
06:50	59.0	59.0	59.0	97	58.1	0	0	---	0.00	30.010 
06:55	59.2	59.2	59.2	97	58.3	0	1	158	0.00	30.009 
07:00	59.5	59.5	59.5	96	58.4	0	0	---	0.00	30.004 
07:05	59.8	59.8	59.8	96	58.7	0	1	158	0.00	30.010 
07:10	60.2	60.2	60.2	96	59.1	0	0	---	0.00	30.007 
07:15	60.7	60.7	60.7	95	59.3	0	1	158	0.00	30.004 
07:20	61.0	61.0	61.0	92	58.7	0	1	158	0.00	30.005 
07:25	61.6	61.6	61.6	87	57.7	0	1	158	0.00	30.009 
07:30	62.3	62.3	62.3	83	57.1	0	1	180	0.00	30.012 
07:35	62.9	62.9	62.9	80	56.6	0	2	180	0.00	30.008 
07:40	63.4	63.4	63.4	76	55.7	0	3	225	0.00	30.010 
07:45	63.9	63.9	63.9	73	55.1	0	2	225	0.00	30.011 
07:50	64.2	64.2	64.2	72	55.0	0	2	225	0.00	30.006 
07:55	64.5	64.5	64.5	71	54.9	0	1	225	0.00	30.008 
08:00	64.7	64.7	64.7	70	54.7	0	2	225	0.00	30.013 
08:05	65.0	65.0	65.0	71	55.4	0	2	225	0.00	30.022 
08:10	65.2	65.2	65.2	70	55.2	0	1	225	0.00	30.027 
08:15	65.2	65.2	65.2	70	55.2	0	2	225	0.00	30.032 
08:20	65.3	65.3	65.3	69	54.9	0	3	225	0.00	30.032 
08:25	65.5	65.5	65.5	67	54.2	1	3	248	0.00	30.031 
08:30	65.6	65.6	65.6	67	54.3	0	2	248	0.00	30.033 
08:35	65.8	65.8	65.8	69	55.3	0	1	248	0.00	30.031 
08:40	66.0	66.0	66.0	68	55.1	0	2	248	0.00	30.029 
08:45	66.1	66.1	66.1	67	54.8	0	3	248	0.00	30.024 
08:50	66.3	66.3	66.3	67	55.0	1	2	248	0.00	30.019 
08:55	66.6	66.6	66.6	67	55.3	1	4	248	0.00	30.015 
09:00	66.9	66.9	66.9	66	55.2	1	3	248	0.00	30.017 
09:05	67.1	67.1	67.1	66	55.4	1	3	248	0.00	30.024 
09:10	67.4	67.4	67.4	66	55.6	0	2	248	0.00	30.019 
09:15	67.6	67.6	67.6	65	55.4	1	2	248	0.00	30.015 
09:20	67.8	67.8	67.8	64	55.2	1	3	270	0.00	30.012 
09:25	67.9	67.9	67.9	64	55.3	1	3	270	0.00	30.001 
09:30	67.9	67.9	67.9	63	54.8	1	5	248	0.00	29.999 
09:35	68.1	68.1	68.1	62	54.6	1	4	248	0.00	29.995 
09:40	68.3	68.3	68.3	61	54.3	2	6	270	0.00	29.987 
09:45	68.4	68.4	68.4	62	54.9	1	3	248	0.00	29.983 
09:50	68.6	68.6	68.6	60	54.1	2	5	270	0.00	29.976 
09:55	68.6	68.6	68.6	61	54.6	2	6	248	0.00	29.969 
10:00	68.4	68.4	68.4	62	54.9	1	6	270	0.00	29.964 
10:05	68.1	68.1	68.1	62	54.6	1	3	248	0.00	29.963 
10:10	67.9	67.9	67.9	63	54.8	1	3	338	0.00	29.959 
10:15	67.9	67.9	67.9	64	55.3	1	7	248	0.00	29.956 
10:20	67.8	67.8	67.8	65	55.6	1	4	90	0.00	29.954 
10:25	67.6	67.6	67.6	66	55.8	1	4	90	0.00	29.955 
10:30	67.4	67.4	67.4	68	56.5	1	5	45	0.00	29.957 
10:35	67.3	67.3	67.3	69	56.8	0	3	270	0.00	29.963 
10:40	67.3	67.3	67.3	69	56.8	1	3	68	0.00	29.964 
10:45	67.6	67.6	67.6	70	57.5	1	3	68	0.00	29.969 
10:50	67.9	67.9	67.9	71	58.1	0	3	248	0.00	29.959 
10:55	68.1	68.1	68.1	69	57.5	2	4	270	0.00	29.945 
11:00	68.4	68.4	68.4	69	57.8	2	6	112	0.00	29.941 
11:05	68.6	68.6	68.6	68	57.6	2	6	90	0.00	29.938 
11:10	68.9	68.9	68.9	68	57.9	1	3	90	0.00	29.948 
11:15	69.4	69.4	69.4	70	59.2	1	3	270	0.00	29.958 
11:20	69.9	69.9	69.9	66	58.0	0	2	270	0.00	29.961 
11:25	70.3	70.3	70.3	67	58.8	0	2	248	0.00	29.954 
11:30	70.6	70.6	70.6	64	57.8	0	2	248	0.00	29.951 
11:35	70.9	70.9	70.9	60	56.3	2	4	90	0.00	29.953 
11:40	71.1	71.1	71.1	62	57.4	1	4	68	0.00	29.953 
11:45	71.5	71.5	71.5	65	59.1	1	5	270	0.00	29.942 
11:50	72.0	72.0	72.0	62	58.3	2	5	90	0.00	29.938 
11:55	72.3	72.3	72.3	62	58.5	2	4	90	0.00	29.941 
12:00	73.2	73.2	73.2	63	59.8	1	4	90	0.00	29.939 
12:05	73.3	73.3	73.3	62	59.5	2	6	292	0.00	29.939 
12:10	73.9	73.9	73.9	61	59.6	1	5	315	0.00	29.938 
12:15	74.4	74.4	74.4	60	59.6	2	6	90	0.00	29.937 
12:20	74.9	74.9	74.9	62	61.0	2	6	90	0.00	29.934 
12:25	75.3	75.3	77.5	61	60.9	1	4	270	0.00	29.935 
12:30	76.1	76.1	78.1	60	61.2	1	2	270	0.00	29.933 
12:35	76.1	76.1	78.1	58	60.2	2	4	248	0.00	29.933 
12:40	76.1	76.1	78.1	57	59.7	3	7	112	0.00	29.928 
12:45	76.3	76.3	78.3	54	58.4	2	6	90	0.00	29.921 
12:50	76.5	76.5	78.4	55	59.1	2	4	90	0.00	29.916 
12:55	76.5	76.5	78.4	58	60.6	2	4	90	0.00	29.910 
13:00	76.3	76.3	78.2	59	60.9	1	3	68	0.00	29.904 
13:05	76.7	76.7	78.5	55	59.3	1	3	112	0.00	29.902 
13:10	77.2	77.2	78.9	58	61.3	1	4	248	0.00	29.902 
13:15	77.7	77.7	79.2	55	60.2	2	5	248	0.00	29.902 
13:20	78.1	78.1	79.4	51	58.5	3	6	90	0.00	29.900 
13:25	78.5	78.5	79.8	53	59.9	2	4	90	0.00	29.899 
13:30	78.8	78.8	79.9	51	59.1	3	10	90	0.00	29.895 
13:35	79.2	79.2	80.6	56	62.1	2	4	112	0.00	29.889 
13:40	79.2	79.2	80.4	53	60.6	2	5	270	0.00	29.886 
13:45	79.6	79.6	80.5	50	59.3	1	4	270	0.00	29.886 
13:50	79.9	79.9	80.8	51	60.1	2	5	270	0.00	29.885 
13:55	79.8	79.8	80.6	50	59.5	2	9	270	0.00	29.888 
14:00	79.9	79.9	80.6	49	59.0	2	6	68	0.00	29.885 
14:05	79.8	79.8	80.5	49	58.9	1	4	248	0.00	29.887 
14:10	79.4	79.4	80.3	50	59.1	2	5	248	0.00	29.889 
14:15	79.9	79.9	80.9	52	60.7	1	5	248	0.00	29.886 
14:20	80.9	80.9	81.4	48	59.3	1	3	90	0.00	29.888 
14:25	81.4	81.4	81.8	47	59.2	1	4	270	0.00	29.889 
14:30	81.2	81.2	81.5	46	58.4	1	4	248	0.00	29.893 
14:35	80.9	80.9	81.2	46	58.2	1	3	270	0.00	29.893 
14:40	80.7	80.7	81.6	51	60.9	1	2	248	0.00	29.891 
14:45	80.7	80.7	81.2	48	59.2	1	3	248	0.00	29.892 
14:50	81.8	81.8	82.1	47	59.6	1	3	248	0.00	29.885 
14:55	82.6	82.6	82.8	46	59.7	2	4	270	0.00	29.881 
15:00	83.2	83.2	83.4	46	60.2	1	5	248	0.00	29.876 
15:05	83.4	83.4	83.7	46	60.4	1	3	270	0.00	29.869 
15:10	83.4	83.4	83.3	44	59.2	2	5	270	0.00	29.867 
15:15	83.2	83.2	83.4	46	60.2	2	4	292	0.00	29.865 
15:20	83.4	83.4	83.5	45	59.8	2	5	248	0.00	29.862 
15:25	83.2	83.2	83.3	45	59.6	2	6	248	0.00	29.859 
15:30	83.6	83.6	83.7	45	60.0	2	5	270	0.00	29.855 
15:35	84.1	84.1	84.3	45	60.4	1	3	270	0.00	29.858 
15:40	84.5	84.5	84.5	44	60.2	1	4	338	0.00	29.853 
15:45	84.7	84.7	85.0	45	61.0	1	2	248	0.00	29.851 
15:50	85.1	85.1	85.2	44	60.7	1	2	248	0.00	29.849 
15:55	85.5	85.5	85.7	44	61.1	1	3	248	0.00	29.848 
16:00	85.5	85.5	85.7	44	61.1	1	4	270	0.00	29.844 
16:05	85.3	85.3	85.5	44	60.9	1	3	248	0.00	29.843 
16:10	85.1	85.1	85.2	44	60.7	1	4	270	0.00	29.846 
16:15	85.3	85.3	85.5	44	60.9	2	3	270	0.00	29.844 
16:20	85.3	85.3	85.7	45	61.5	1	3	270	0.00	29.841 
16:25	85.3	85.3	85.5	44	60.9	1	4	270	0.00	29.838 
16:30	85.1	85.1	85.2	44	60.7	1	3	248	0.00	29.836 
16:35	85.3	85.3	85.5	44	60.9	1	4	248	0.00	29.836 
16:40	85.1	85.1	85.2	44	60.7	1	3	270	0.00	29.836 
16:45	84.7	84.7	85.0	45	61.0	1	2	270	0.00	29.838 
16:50	84.3	84.3	84.7	46	61.2	1	2	270	0.00	29.837 
16:55	84.1	84.1	84.4	46	61.1	0	1	270	0.00	29.835 
17:00	84.1	84.1	84.4	46	61.1	1	2	270	0.00	29.834 
17:05	84.3	84.3	84.7	46	61.2	1	2	270	0.00	29.833 
17:10	84.3	84.3	85.1	48	62.4	0	2	270	0.00	29.833 
17:15	84.1	84.1	84.8	48	62.3	0	2	270	0.00	29.834 
17:20	83.8	83.8	84.3	47	61.4	1	2	248	0.00	29.833 
17:25	83.4	83.4	84.0	48	61.6	0	2	248	0.00	29.834 
17:30	83.4	83.4	84.0	48	61.6	0	2	248	0.00	29.834 
17:35	83.2	83.2	84.0	49	62.0	0	1	248	0.00	29.832 
17:40	83.4	83.4	84.6	51	63.3	0	1	248	0.00	29.828 
17:45	83.4	83.4	84.0	48	61.6	0	1	248	0.00	29.830 
17:50	83.4	83.4	84.2	49	62.2	0	1	248	0.00	29.828 
17:55	83.2	83.2	84.1	50	62.6	0	1	248	0.00	29.829 
18:00	83.2	83.2	84.1	50	62.6	0	1	248	0.00	29.828 
18:05	83.0	83.0	84.3	52	63.5	0	1	248	0.00	29.828 
18:10	82.8	82.8	84.0	52	63.3	0	1	248	0.00	29.829 
18:15	82.6	82.6	84.1	54	64.2	0	0	---	0.00	29.829 
18:20	82.6	82.6	84.1	54	64.2	0	1	248	0.00	29.830 
18:25	82.4	82.4	83.9	54	64.1	0	1	248	0.00	29.832 
18:30	82.2	82.2	83.6	54	63.9	0	1	248	0.00	29.830 
18:35	82.0	82.0	83.6	55	64.2	0	0	---	0.00	29.831 
18:40	82.0	82.0	83.7	56	64.7	0	0	---	0.00	29.831 
18:45	81.8	81.8	83.6	57	65.0	0	1	248	0.00	29.832 
18:50	81.4	81.4	83.0	56	64.2	0	1	248	0.00	29.834 
18:55	81.2	81.2	82.9	57	64.5	0	1	248	0.00	29.835 
19:00	81.1	81.1	82.9	58	64.9	0	1	248	0.00	29.834 
19:05	80.9	80.9	82.5	57	64.2	0	2	248	0.00	29.830 
19:10	80.5	80.5	82.2	58	64.3	1	2	270	0.00	29.831 
19:15	80.3	80.3	81.9	58	64.2	0	2	270	0.00	29.832 
19:20	80.1	80.1	81.8	59	64.5	0	1	270	0.00	29.831 
19:25	79.9	79.9	81.6	59	64.3	0	1	270	0.00	29.833 
19:30	79.6	79.6	81.3	60	64.5	0	1	270	0.00	29.834 
19:35	79.4	79.4	81.1	60	64.3	0	1	270	0.00	29.834 
19:40	79.2	79.2	81.0	61	64.6	0	1	270	0.00	29.833 
19:45	78.8	78.8	80.6	62	64.7	0	0	---	0.00	29.835 
19:50	78.5	78.5	80.3	63	64.8	0	1	270	0.00	29.837 
19:55	78.1	78.1	79.9	63	64.5	0	1	270	0.00	29.843 
20:00	77.9	77.9	79.7	64	64.7	0	1	270	0.00	29.845 
20:05	77.7	77.7	79.5	65	65.0	0	1	270	0.00	29.841 
20:10	77.4	77.4	79.2	65	64.7	0	1	270	0.00	29.839 
20:15	77.2	77.2	79.0	66	64.9	0	1	270	0.00	29.841 
20:20	77.0	77.0	78.8	66	64.8	0	1	270	0.00	29.842 
20:25	76.8	76.8	78.6	67	65.0	0	1	270	0.00	29.842 
20:30	76.7	76.7	78.5	68	65.3	0	0	---	0.00	29.844 
20:35	76.3	76.3	78.0	68	64.9	0	1	270	0.00	29.845 
20:40	76.3	76.3	78.0	68	64.9	0	1	270	0.00	29.848 
20:45	76.1	76.1	77.8	69	65.2	0	0	---	0.00	29.848 
20:50	75.8	75.8	77.5	69	64.9	0	0	---	0.00	29.848 
20:55	75.6	75.6	77.2	70	65.1	0	0	---	0.00	29.848 
21:00	75.4	75.4	77.0	71	65.3	0	0	---	0.00	29.852 
21:05	75.4	75.4	77.0	71	65.3	0	1	270	0.00	29.850 
21:10	75.6	75.6	77.2	71	65.5	0	1	270	0.00	29.852 
21:15	75.6	75.6	77.2	71	65.5	0	0	---	0.00	29.853 
21:20	75.6	75.6	77.2	71	65.5	0	0	---	0.00	29.854 
21:25	75.6	75.6	77.2	71	65.5	0	0	---	0.00	29.857 
21:30	75.4	75.4	77.0	71	65.3	0	1	270	0.00	29.857 
21:35	75.4	75.4	77.0	71	65.3	0	1	270	0.00	29.854 
21:40	75.4	75.4	76.9	72	65.7	0	1	270	0.00	29.853 
21:45	75.3	75.3	76.8	72	65.6	0	0	---	0.00	29.855 
21:50	75.1	75.1	76.6	72	65.4	0	0	---	0.00	29.850 
21:55	74.9	74.9	74.9	72	65.2	0	0	---	0.00	29.858 
22:00	74.7	74.7	74.7	73	65.5	0	0	---	0.00	29.859 
22:05	74.7	74.7	74.7	73	65.5	0	0	---	0.00	29.861 
22:10	74.6	74.6	74.6	73	65.4	0	0	---	0.00	29.861 
22:15	74.4	74.4	74.4	73	65.2	0	0	---	0.00	29.861 
22:20	74.2	74.2	74.2	74	65.4	0	0	---	0.00	29.856 
22:25	74.0	74.0	74.0	74	65.2	0	0	---	0.00	29.853 
22:30	73.7	73.7	73.7	75	65.3	0	0	---	0.00	29.852 
22:35	73.5	73.5	73.5	75	65.1	0	0	---	0.00	29.853 
22:40	73.5	73.5	73.5	76	65.5	0	0	---	0.00	29.856 
22:45	73.3	73.3	73.3	76	65.3	0	0	---	0.00	29.857 
22:50	73.2	73.2	73.2	77	65.5	0	0	---	0.00	29.856 
22:55	73.2	73.2	73.2	77	65.5	0	0	---	0.00	29.858 
23:00	73.0	73.0	73.0	77	65.3	0	0	---	0.00	29.854 
23:05	73.0	73.0	73.0	77	65.3	0	0	---	0.00	29.850 
23:10	72.8	72.8	72.8	78	65.5	0	0	---	0.00	29.849 
23:15	72.8	72.8	72.8	78	65.5	0	0	---	0.00	29.846 
23:20	72.8	72.8	72.8	79	65.9	0	0	---	0.00	29.846 
23:25	72.7	72.7	72.7	79	65.8	0	0	---	0.00	29.845 
23:30	72.7	72.7	72.7	79	65.8	0	0	---	0.00	29.846 
23:35	72.7	72.7	72.7	79	65.8	0	0	---	0.00	29.846 
23:40	72.8	72.8	72.8	80	66.3	0	0	---	0.00	29.847 
23:45	73.0	73.0	73.0	79	66.1	0	0	---	0.00	29.847 
23:50	73.2	73.2	73.2	79	66.3	0	0	---	0.00	29.849 
23:55	73.2	73.2	73.2	79	66.3	0	0	---	0.00	29.851 

CoCoRaHS
IN-AL-39
A2 Web Hosting
Creative Commons License
GoDaddy
Look for:

loaded 2017-12-12 15:11:48 • last modified 2010-11-18 10:43:29
Privacy PolicyDisclaimer
• wx.awcolley.com is powered by PmWiki v.2002016 •
• all content (unless otherwise noted) © 2017 A W Colley